sensor_id;sensor_type;location;lat;lon;timestamp;pressure;altitude;pressure_sealevel;temperature;humidity
56042;BME280;48756;41.374;2.066;2023-02-13T00:01:11;102868.88;;;6.37;81.00
56042;BME280;48756;41.374;2.066;2023-02-13T00:03:37;102863.44;;;6.31;81.04
56042;BME280;48756;41.374;2.066;2023-02-13T00:06:02;102863.81;;;6.20;81.05
56042;BME280;48756;41.374;2.066;2023-02-13T00:08:28;102863.97;;;6.03;80.37
56042;BME280;48756;41.374;2.066;2023-02-13T00:10:53;102856.69;;;6.14;81.99
56042;BME280;48756;41.374;2.066;2023-02-13T00:13:19;102860.25;;;5.97;81.72
56042;BME280;48756;41.374;2.066;2023-02-13T00:15:44;102859.66;;;5.84;82.53
56042;BME280;48756;41.374;2.066;2023-02-13T00:18:10;102854.28;;;6.19;81.68
56042;BME280;48756;41.374;2.066;2023-02-13T00:20:35;102859.31;;;6.16;81.32
56042;BME280;48756;41.374;2.066;2023-02-13T00:23:01;102854.22;;;6.17;80.81
56042;BME280;48756;41.374;2.066;2023-02-13T00:25:26;102852.03;;;6.07;81.74
56042;BME280;48756;41.374;2.066;2023-02-13T00:27:52;102852.03;;;6.07;81.38
56042;BME280;48756;41.374;2.066;2023-02-13T00:30:19;102854.06;;;5.93;81.32
56042;BME280;48756;41.374;2.066;2023-02-13T00:32:45;102858.91;;;5.87;82.02
56042;BME280;48756;41.374;2.066;2023-02-13T00:35:10;102855.50;;;5.88;82.30
56042;BME280;48756;41.374;2.066;2023-02-13T00:37:36;102846.94;;;5.89;81.33
56042;BME280;48756;41.374;2.066;2023-02-13T00:40:01;102852.78;;;5.85;81.26
56042;BME280;48756;41.374;2.066;2023-02-13T00:42:27;102855.78;;;5.75;81.57
56042;BME280;48756;41.374;2.066;2023-02-13T00:44:53;102853.28;;;5.76;81.96
56042;BME280;48756;41.374;2.066;2023-02-13T00:47:21;102846.81;;;5.67;82.70
56042;BME280;48756;41.374;2.066;2023-02-13T00:49:47;102840.97;;;5.71;82.15
56042;BME280;48756;41.374;2.066;2023-02-13T00:52:12;102847.34;;;5.79;83.06
56042;BME280;48756;41.374;2.066;2023-02-13T00:54:38;102836.75;;;5.73;83.00
56042;BME280;48756;41.374;2.066;2023-02-13T00:57:03;102837.81;;;5.78;82.89
56042;BME280;48756;41.374;2.066;2023-02-13T00:59:29;102836.06;;;5.96;82.56
56042;BME280;48756;41.374;2.066;2023-02-13T01:01:54;102834.50;;;6.00;81.55
56042;BME280;48756;41.374;2.066;2023-02-13T01:04:20;102837.72;;;5.94;81.73
56042;BME280;48756;41.374;2.066;2023-02-13T01:06:45;102835.19;;;5.96;80.39
56042;BME280;48756;41.374;2.066;2023-02-13T01:09:11;102836.69;;;5.91;82.08
56042;BME280;48756;41.374;2.066;2023-02-13T01:11:37;102839.66;;;6.00;81.71
56042;BME280;48756;41.374;2.066;2023-02-13T01:14:02;102849.69;;;5.92;82.06
56042;BME280;48756;41.374;2.066;2023-02-13T01:16:28;102844.22;;;6.05;80.65
56042;BME280;48756;41.374;2.066;2023-02-13T01:18:56;102839.47;;;5.95;81.20
56042;BME280;48756;41.374;2.066;2023-02-13T01:21:22;102847.59;;;5.85;81.60
56042;BME280;48756;41.374;2.066;2023-02-13T01:23:48;102844.19;;;5.86;81.07
56042;BME280;48756;41.374;2.066;2023-02-13T01:26:19;102854.88;;;5.92;80.62
56042;BME280;48756;41.374;2.066;2023-02-13T01:28:46;102845.66;;;5.99;80.15
56042;BME280;48756;41.374;2.066;2023-02-13T01:31:12;102844.34;;;6.08;79.17
56042;BME280;48756;41.374;2.066;2023-02-13T01:33:37;102840.47;;;5.99;77.63
56042;BME280;48756;41.374;2.066;2023-02-13T01:36:10;102846.41;;;5.96;80.52
56042;BME280;48756;41.374;2.066;2023-02-13T01:38:36;102846.44;;;6.17;79.38
56042;BME280;48756;41.374;2.066;2023-02-13T01:41:02;102844.75;;;6.18;79.44
56042;BME280;48756;41.374;2.066;2023-02-13T01:43:49;102848.84;;;6.12;79.80
56042;BME280;48756;41.374;2.066;2023-02-13T01:46:21;102842.84;;;6.13;79.57
56042;BME280;48756;41.374;2.066;2023-02-13T01:48:48;102851.53;;;5.95;79.61
56042;BME280;48756;41.374;2.066;2023-02-13T01:51:20;102856.31;;;5.87;80.65
56042;BME280;48756;41.374;2.066;2023-02-13T01:53:52;102840.09;;;5.90;80.19
56042;BME280;48756;41.374;2.066;2023-02-13T01:56:27;102842.94;;;5.96;80.21
56042;BME280;48756;41.374;2.066;2023-02-13T01:58:57;102846.16;;;5.90;79.54
56042;BME280;48756;41.374;2.066;2023-02-13T02:01:25;102846.84;;;5.88;80.05
56042;BME280;48756;41.374;2.066;2023-02-13T02:03:56;102854.47;;;5.84;80.83
56042;BME280;48756;41.374;2.066;2023-02-13T02:06:34;102854.59;;;5.67;81.04
56042;BME280;48756;41.374;2.066;2023-02-13T02:09:05;102850.06;;;5.63;80.28
56042;BME280;48756;41.374;2.066;2023-02-13T02:11:45;102854.97;;;5.76;79.12
56042;BME280;48756;41.374;2.066;2023-02-13T02:14:13;102852.53;;;5.79;79.61
56042;BME280;48756;41.374;2.066;2023-02-13T02:16:38;102857.13;;;5.86;79.49
56042;BME280;48756;41.374;2.066;2023-02-13T02:19:09;102859.59;;;5.83;78.77
56042;BME280;48756;41.374;2.066;2023-02-13T02:21:48;102860.34;;;5.61;79.65
56042;BME280;48756;41.374;2.066;2023-02-13T02:24:31;102856.69;;;5.75;78.80
56042;BME280;48756;41.374;2.066;2023-02-13T02:38:00;102856.88;;;5.61;78.09
56042;BME280;48756;41.374;2.066;2023-02-13T02:43:24;102858.44;;;5.57;78.81
56042;BME280;48756;41.374;2.066;2023-02-13T02:51:47;102863.22;;;5.48;78.00
56042;BME280;48756;41.374;2.066;2023-02-13T02:57:21;102856.44;;;5.32;77.50
56042;BME280;48756;41.374;2.066;2023-02-13T02:59:50;102857.53;;;5.37;78.14
56042;BME280;48756;41.374;2.066;2023-02-13T03:02:36;102864.41;;;5.37;78.66
56042;BME280;48756;41.374;2.066;2023-02-13T03:05:30;102862.28;;;5.28;80.09
56042;BME280;48756;41.374;2.066;2023-02-13T03:08:16;102856.25;;;5.28;78.56
56042;BME280;48756;41.374;2.066;2023-02-13T03:11:02;102864.75;;;5.25;79.21
56042;BME280;48756;41.374;2.066;2023-02-13T03:13:48;102857.47;;;5.36;78.14
56042;BME280;48756;41.374;2.066;2023-02-13T03:16:23;102861.81;;;5.37;77.54
56042;BME280;48756;41.374;2.066;2023-02-13T03:19:29;102862.59;;;5.53;77.45
56042;BME280;48756;41.374;2.066;2023-02-13T03:22:35;102858.31;;;5.54;76.61
56042;BME280;48756;41.374;2.066;2023-02-13T03:28:18;102860.06;;;5.36;77.87
56042;BME280;48756;41.374;2.066;2023-02-13T03:39:37;102858.72;;;5.44;76.52
56042;BME280;48756;41.374;2.066;2023-02-13T03:45:00;102856.72;;;5.38;75.80
56042;BME280;48756;41.374;2.066;2023-02-13T03:47:50;102853.13;;;5.35;76.13
56042;BME280;48756;41.374;2.066;2023-02-13T03:50:18;102860.75;;;5.51;74.99
56042;BME280;48756;41.374;2.066;2023-02-13T03:52:52;102857.94;;;5.66;74.73
56042;BME280;48756;41.374;2.066;2023-02-13T03:55:24;102864.38;;;5.54;74.71
56042;BME280;48756;41.374;2.066;2023-02-13T03:58:16;102871.22;;;5.54;75.18
56042;BME280;48756;41.374;2.066;2023-02-13T04:01:03;102868.81;;;5.39;75.25
56042;BME280;48756;41.374;2.066;2023-02-13T04:06:12;102868.34;;;5.29;75.71
56042;BME280;48756;41.374;2.066;2023-02-13T04:08:40;102867.78;;;5.53;74.75
56042;BME280;48756;41.374;2.066;2023-02-13T04:13:47;102873.63;;;5.49;76.07
56042;BME280;48756;41.374;2.066;2023-02-13T04:16:37;102879.88;;;5.54;75.22
56042;BME280;48756;41.374;2.066;2023-02-13T04:19:05;102877.81;;;5.28;76.31
56042;BME280;48756;41.374;2.066;2023-02-13T04:21:37;102873.88;;;5.36;75.10
56042;BME280;48756;41.374;2.066;2023-02-13T04:24:05;102887.44;;;5.50;74.30
56042;BME280;48756;41.374;2.066;2023-02-13T04:26:36;102883.91;;;5.48;75.34
56042;BME280;48756;41.374;2.066;2023-02-13T04:29:02;102886.13;;;5.60;74.95
56042;BME280;48756;41.374;2.066;2023-02-13T04:31:28;102884.09;;;5.52;75.58
56042;BME280;48756;41.374;2.066;2023-02-13T04:33:53;102884.31;;;5.57;75.71
56042;BME280;48756;41.374;2.066;2023-02-13T04:36:19;102881.19;;;5.45;74.45
56042;BME280;48756;41.374;2.066;2023-02-13T04:38:44;102886.66;;;5.33;73.61
56042;BME280;48756;41.374;2.066;2023-02-13T04:41:10;102883.97;;;5.49;73.41
56042;BME280;48756;41.374;2.066;2023-02-13T04:43:36;102880.97;;;5.60;74.05
56042;BME280;48756;41.374;2.066;2023-02-13T04:46:01;102885.06;;;5.54;73.93
56042;BME280;48756;41.374;2.066;2023-02-13T04:48:27;102884.06;;;5.33;73.08
56042;BME280;48756;41.374;2.066;2023-02-13T04:50:52;102888.44;;;5.53;72.17
56042;BME280;48756;41.374;2.066;2023-02-13T04:53:18;102886.28;;;5.43;72.87
56042;BME280;48756;41.374;2.066;2023-02-13T04:55:44;102889.75;;;5.44;72.28
56042;BME280;48756;41.374;2.066;2023-02-13T04:58:09;102884.56;;;5.63;71.71
56042;BME280;48756;41.374;2.066;2023-02-13T05:00:38;102886.81;;;5.56;71.41
56042;BME280;48756;41.374;2.066;2023-02-13T05:03:09;102894.03;;;5.43;70.94
56042;BME280;48756;41.374;2.066;2023-02-13T05:05:35;102901.56;;;5.39;72.01
56042;BME280;48756;41.374;2.066;2023-02-13T05:08:01;102901.41;;;5.36;70.58
56042;BME280;48756;41.374;2.066;2023-02-13T05:10:27;102896.75;;;5.46;70.47
56042;BME280;48756;41.374;2.066;2023-02-13T05:12:53;102893.63;;;5.53;70.47
56042;BME280;48756;41.374;2.066;2023-02-13T05:15:18;102894.38;;;5.51;68.89
56042;BME280;48756;41.374;2.066;2023-02-13T05:17:45;102902.13;;;5.51;70.04
56042;BME280;48756;41.374;2.066;2023-02-13T05:20:12;102903.41;;;5.61;69.01
56042;BME280;48756;41.374;2.066;2023-02-13T05:22:49;102905.31;;;5.65;69.16
56042;BME280;48756;41.374;2.066;2023-02-13T05:25:35;102918.53;;;5.51;71.14
56042;BME280;48756;41.374;2.066;2023-02-13T05:28:02;102901.03;;;5.46;69.14
56042;BME280;48756;41.374;2.066;2023-02-13T05:30:27;102910.13;;;5.38;70.31
56042;BME280;48756;41.374;2.066;2023-02-13T05:32:53;102905.09;;;5.41;70.34
56042;BME280;48756;41.374;2.066;2023-02-13T05:35:20;102908.91;;;5.67;69.04
56042;BME280;48756;41.374;2.066;2023-02-13T05:37:46;102902.75;;;5.65;70.32
56042;BME280;48756;41.374;2.066;2023-02-13T05:40:12;102903.72;;;5.67;69.30
56042;BME280;48756;41.374;2.066;2023-02-13T05:42:39;102910.72;;;5.69;69.88
56042;BME280;48756;41.374;2.066;2023-02-13T05:45:06;102907.38;;;5.52;70.54
56042;BME280;48756;41.374;2.066;2023-02-13T05:47:32;102915.75;;;5.47;70.90
56042;BME280;48756;41.374;2.066;2023-02-13T05:49:57;102918.66;;;5.54;70.37
56042;BME280;48756;41.374;2.066;2023-02-13T05:52:23;102917.03;;;5.57;70.53
56042;BME280;48756;41.374;2.066;2023-02-13T05:54:48;102914.44;;;5.57;69.51
56042;BME280;48756;41.374;2.066;2023-02-13T05:57:14;102920.38;;;5.54;70.40
56042;BME280;48756;41.374;2.066;2023-02-13T05:59:39;102928.25;;;5.57;68.47
56042;BME280;48756;41.374;2.066;2023-02-13T06:02:05;102929.47;;;5.46;70.30
56042;BME280;48756;41.374;2.066;2023-02-13T06:04:31;102927.66;;;5.26;70.18
56042;BME280;48756;41.374;2.066;2023-02-13T06:06:59;102923.13;;;5.39;69.68
56042;BME280;48756;41.374;2.066;2023-02-13T06:09:25;102919.72;;;5.40;68.41
56042;BME280;48756;41.374;2.066;2023-02-13T06:11:50;102925.75;;;5.04;69.14
56042;BME280;48756;41.374;2.066;2023-02-13T06:14:16;102926.72;;;5.06;69.37
56042;BME280;48756;41.374;2.066;2023-02-13T06:16:41;102929.94;;;5.19;69.73
56042;BME280;48756;41.374;2.066;2023-02-13T06:19:07;102931.81;;;5.41;67.56
56042;BME280;48756;41.374;2.066;2023-02-13T06:21:33;102935.16;;;5.39;68.25
56042;BME280;48756;41.374;2.066;2023-02-13T06:24:06;102931.81;;;5.41;69.89
56042;BME280;48756;41.374;2.066;2023-02-13T06:26:32;102932.38;;;5.34;68.24
56042;BME280;48756;41.374;2.066;2023-02-13T06:28:58;102938.16;;;5.11;68.86
56042;BME280;48756;41.374;2.066;2023-02-13T06:31:23;102935.78;;;5.15;68.76
56042;BME280;48756;41.374;2.066;2023-02-13T06:33:49;102945.09;;;5.30;68.57
56042;BME280;48756;41.374;2.066;2023-02-13T06:36:14;102946.78;;;5.29;68.86
56042;BME280;48756;41.374;2.066;2023-02-13T06:38:40;102942.56;;;5.31;67.54
56042;BME280;48756;41.374;2.066;2023-02-13T06:41:06;102942.28;;;5.25;67.70
56042;BME280;48756;41.374;2.066;2023-02-13T06:43:31;102949.75;;;5.01;68.69
56042;BME280;48756;41.374;2.066;2023-02-13T06:45:57;102936.38;;;5.28;68.23
56042;BME280;48756;41.374;2.066;2023-02-13T06:48:24;102936.38;;;5.10;67.72
56042;BME280;48756;41.374;2.066;2023-02-13T06:50:49;102930.25;;;5.08;67.67
56042;BME280;48756;41.374;2.066;2023-02-13T06:53:17;102941.47;;;5.08;67.79
56042;BME280;48756;41.374;2.066;2023-02-13T06:55:44;102946.63;;;5.08;69.64
56042;BME280;48756;41.374;2.066;2023-02-13T06:58:10;102962.91;;;5.23;67.94
56042;BME280;48756;41.374;2.066;2023-02-13T07:00:35;102966.34;;;5.06;68.99
56042;BME280;48756;41.374;2.066;2023-02-13T07:03:05;102956.97;;;5.08;68.93
56042;BME280;48756;41.374;2.066;2023-02-13T07:05:31;102953.00;;;4.63;69.45
56042;BME280;48756;41.374;2.066;2023-02-13T07:07:57;102947.66;;;4.76;70.56
56042;BME280;48756;41.374;2.066;2023-02-13T07:10:23;102952.66;;;4.39;72.04
56042;BME280;48756;41.374;2.066;2023-02-13T07:12:48;102951.91;;;4.58;70.64
56042;BME280;48756;41.374;2.066;2023-02-13T07:15:16;102957.25;;;4.45;71.26
56042;BME280;48756;41.374;2.066;2023-02-13T07:17:45;102952.34;;;4.33;71.49
56042;BME280;48756;41.374;2.066;2023-02-13T07:20:10;102954.63;;;4.11;71.44
56042;BME280;48756;41.374;2.066;2023-02-13T07:22:36;102960.00;;;3.99;72.37
56042;BME280;48756;41.374;2.066;2023-02-13T07:25:02;102967.72;;;3.83;73.08
56042;BME280;48756;41.374;2.066;2023-02-13T07:27:28;102968.72;;;3.85;73.75
56042;BME280;48756;41.374;2.066;2023-02-13T07:29:55;102973.78;;;3.99;72.84
56042;BME280;48756;41.374;2.066;2023-02-13T07:32:22;102986.88;;;4.69;70.66
56042;BME280;48756;41.374;2.066;2023-02-13T07:34:48;102986.09;;;5.22;68.94
56042;BME280;48756;41.374;2.066;2023-02-13T07:37:14;102996.09;;;5.34;68.00
56042;BME280;48756;41.374;2.066;2023-02-13T07:39:39;103008.75;;;5.28;67.55
56042;BME280;48756;41.374;2.066;2023-02-13T07:42:05;103010.38;;;5.26;67.20
56042;BME280;48756;41.374;2.066;2023-02-13T07:44:31;103010.88;;;5.01;68.49
56042;BME280;48756;41.374;2.066;2023-02-13T07:46:57;103015.03;;;4.81;68.59
56042;BME280;48756;41.374;2.066;2023-02-13T07:49:23;103009.63;;;5.10;69.55
56042;BME280;48756;41.374;2.066;2023-02-13T07:51:49;103012.72;;;5.57;67.37
56042;BME280;48756;41.374;2.066;2023-02-13T07:54:14;103011.16;;;5.60;66.96
56042;BME280;48756;41.374;2.066;2023-02-13T07:56:40;103020.47;;;5.57;67.28
56042;BME280;48756;41.374;2.066;2023-02-13T07:59:05;103020.34;;;5.53;67.41
56042;BME280;48756;41.374;2.066;2023-02-13T08:01:31;103013.31;;;5.51;66.68
56042;BME280;48756;41.374;2.066;2023-02-13T08:03:56;103014.19;;;5.69;65.73
56042;BME280;48756;41.374;2.066;2023-02-13T08:06:22;103011.91;;;5.58;65.77
56042;BME280;48756;41.374;2.066;2023-02-13T08:08:48;103007.75;;;5.79;65.89
56042;BME280;48756;41.374;2.066;2023-02-13T08:11:33;103010.31;;;5.79;66.59
56042;BME280;48756;41.374;2.066;2023-02-13T08:14:24;103001.34;;;5.71;67.57
56042;BME280;48756;41.374;2.066;2023-02-13T08:16:51;103000.66;;;5.93;65.97
56042;BME280;48756;41.374;2.066;2023-02-13T08:19:17;103005.97;;;5.96;66.01
56042;BME280;48756;41.374;2.066;2023-02-13T08:21:43;103013.88;;;5.81;66.11
56042;BME280;48756;41.374;2.066;2023-02-13T08:24:09;103020.00;;;6.01;67.01
56042;BME280;48756;41.374;2.066;2023-02-13T08:26:35;103027.66;;;6.17;64.11
56042;BME280;48756;41.374;2.066;2023-02-13T08:29:02;103023.56;;;6.41;64.16
56042;BME280;48756;41.374;2.066;2023-02-13T08:31:27;103026.53;;;6.70;63.99
56042;BME280;48756;41.374;2.066;2023-02-13T08:33:55;103029.06;;;6.49;64.10
56042;BME280;48756;41.374;2.066;2023-02-13T08:36:22;103028.09;;;7.06;61.69
56042;BME280;48756;41.374;2.066;2023-02-13T08:38:48;103033.63;;;6.95;61.95
56042;BME280;48756;41.374;2.066;2023-02-13T08:41:14;103035.41;;;7.17;62.08
56042;BME280;48756;41.374;2.066;2023-02-13T08:43:42;103037.22;;;7.61;60.05
56042;BME280;48756;41.374;2.066;2023-02-13T08:46:08;103034.44;;;8.01;58.52
56042;BME280;48756;41.374;2.066;2023-02-13T08:48:35;103040.31;;;7.73;58.96
56042;BME280;48756;41.374;2.066;2023-02-13T08:51:06;103042.31;;;7.37;60.28
56042;BME280;48756;41.374;2.066;2023-02-13T08:53:32;103042.50;;;7.21;59.83
56042;BME280;48756;41.374;2.066;2023-02-13T08:55:58;103040.41;;;7.76;57.82
56042;BME280;48756;41.374;2.066;2023-02-13T08:58:26;103046.53;;;7.78;57.10
56042;BME280;48756;41.374;2.066;2023-02-13T09:00:51;103045.00;;;7.83;57.55
56042;BME280;48756;41.374;2.066;2023-02-13T09:03:17;103042.50;;;8.09;57.43
56042;BME280;48756;41.374;2.066;2023-02-13T09:05:45;103044.28;;;8.10;56.44
56042;BME280;48756;41.374;2.066;2023-02-13T09:08:12;103040.69;;;8.52;56.00
56042;BME280;48756;41.374;2.066;2023-02-13T09:10:41;103040.69;;;8.06;56.39
56042;BME280;48756;41.374;2.066;2023-02-13T09:13:09;103046.38;;;7.96;56.37
56042;BME280;48756;41.374;2.066;2023-02-13T09:15:38;103049.72;;;8.16;56.55
56042;BME280;48756;41.374;2.066;2023-02-13T09:18:07;103050.72;;;8.42;55.27
56042;BME280;48756;41.374;2.066;2023-02-13T09:20:33;103052.13;;;8.57;55.86
56042;BME280;48756;41.374;2.066;2023-02-13T09:23:02;103043.66;;;8.87;54.67
56042;BME280;48756;41.374;2.066;2023-02-13T09:25:27;103038.66;;;8.68;54.66
56042;BME280;48756;41.374;2.066;2023-02-13T09:27:53;103044.41;;;8.83;55.14
56042;BME280;48756;41.374;2.066;2023-02-13T09:30:18;103038.56;;;8.90;54.89
56042;BME280;48756;41.374;2.066;2023-02-13T09:32:49;103047.78;;;9.06;54.17
56042;BME280;48756;41.374;2.066;2023-02-13T09:35:15;103045.09;;;8.79;55.54
56042;BME280;48756;41.374;2.066;2023-02-13T09:37:41;103044.69;;;9.17;53.83
56042;BME280;48756;41.374;2.066;2023-02-13T09:40:21;103049.16;;;9.21;54.88
56042;BME280;48756;41.374;2.066;2023-02-13T09:42:51;103054.44;;;9.25;53.02
56042;BME280;48756;41.374;2.066;2023-02-13T09:45:19;103049.28;;;9.51;53.18
56042;BME280;48756;41.374;2.066;2023-02-13T09:47:46;103048.50;;;9.54;53.69
56042;BME280;48756;41.374;2.066;2023-02-13T09:50:17;103044.09;;;9.80;51.96
56042;BME280;48756;41.374;2.066;2023-02-13T09:52:44;103045.16;;;9.87;51.78
56042;BME280;48756;41.374;2.066;2023-02-13T10:00:45;103048.44;;;10.09;51.79
56042;BME280;48756;41.374;2.066;2023-02-13T10:03:20;103050.03;;;10.04;51.74
56042;BME280;48756;41.374;2.066;2023-02-13T10:08:42;103045.94;;;10.41;51.16
56042;BME280;48756;41.374;2.066;2023-02-13T10:14:07;103042.28;;;10.66;51.78
56042;BME280;48756;41.374;2.066;2023-02-13T10:16:43;103051.88;;;10.67;50.91
56042;BME280;48756;41.374;2.066;2023-02-13T10:19:40;103038.88;;;11.03;51.07
56042;BME280;48756;41.374;2.066;2023-02-13T10:22:17;103043.84;;;10.92;52.20
56042;BME280;48756;41.374;2.066;2023-02-13T10:24:47;103050.88;;;11.65;52.39
56042;BME280;48756;41.374;2.066;2023-02-13T10:27:22;103037.84;;;11.67;51.20
56042;BME280;48756;41.374;2.066;2023-02-13T10:35:49;103034.09;;;11.54;55.39
56042;BME280;48756;41.374;2.066;2023-02-13T10:38:19;103034.75;;;12.22;53.01
56042;BME280;48756;41.374;2.066;2023-02-13T10:43:19;103041.75;;;12.69;53.92
56042;BME280;48756;41.374;2.066;2023-02-13T10:48:47;103037.19;;;12.16;57.31
56042;BME280;48756;41.374;2.066;2023-02-13T10:51:38;103034.13;;;11.95;57.09
56042;BME280;48756;41.374;2.066;2023-02-13T11:02:27;103037.69;;;11.99;58.24
56042;BME280;48756;41.374;2.066;2023-02-13T11:04:59;103043.06;;;12.05;57.85
56042;BME280;48756;41.374;2.066;2023-02-13T11:07:26;103041.63;;;12.20;57.94
56042;BME280;48756;41.374;2.066;2023-02-13T11:09:55;103035.28;;;12.50;56.92
56042;BME280;48756;41.374;2.066;2023-02-13T11:12:29;103033.69;;;13.06;54.76
56042;BME280;48756;41.374;2.066;2023-02-13T11:15:04;103036.19;;;12.99;56.98
56042;BME280;48756;41.374;2.066;2023-02-13T11:17:33;103029.06;;;12.90;56.14
56042;BME280;48756;41.374;2.066;2023-02-13T11:20:06;103022.81;;;13.33;55.48
56042;BME280;48756;41.374;2.066;2023-02-13T11:22:42;103013.59;;;13.58;56.45
56042;BME280;48756;41.374;2.066;2023-02-13T11:27:49;103010.34;;;13.77;56.60
56042;BME280;48756;41.374;2.066;2023-02-13T11:30:36;103001.88;;;13.95;55.79
56042;BME280;48756;41.374;2.066;2023-02-13T11:35:47;102988.81;;;14.00;57.48
56042;BME280;48756;41.374;2.066;2023-02-13T11:40:46;102990.91;;;14.27;57.54
56042;BME280;48756;41.374;2.066;2023-02-13T11:43:22;102989.03;;;14.18;59.09
56042;BME280;48756;41.374;2.066;2023-02-13T11:46:00;102984.94;;;13.70;60.17
56042;BME280;48756;41.374;2.066;2023-02-13T11:48:27;102990.41;;;13.86;60.86
56042;BME280;48756;41.374;2.066;2023-02-13T11:50:53;102978.66;;;14.26;60.14
56042;BME280;48756;41.374;2.066;2023-02-13T11:53:26;102976.41;;;14.59;58.64
56042;BME280;48756;41.374;2.066;2023-02-13T11:56:12;102975.56;;;14.63;58.02
56042;BME280;48756;41.374;2.066;2023-02-13T11:58:39;102976.13;;;14.36;58.30
56042;BME280;48756;41.374;2.066;2023-02-13T12:06:41;102973.63;;;13.74;60.36
56042;BME280;48756;41.374;2.066;2023-02-13T12:09:21;102967.69;;;13.86;62.05
56042;BME280;48756;41.374;2.066;2023-02-13T12:11:50;102974.03;;;14.05;60.18
56042;BME280;48756;41.374;2.066;2023-02-13T12:14:20;102964.34;;;13.99;60.92
56042;BME280;48756;41.374;2.066;2023-02-13T12:17:11;102963.63;;;14.13;60.03
56042;BME280;48756;41.374;2.066;2023-02-13T12:19:44;102964.59;;;14.21;59.76
56042;BME280;48756;41.374;2.066;2023-02-13T12:22:45;102959.63;;;14.45;59.68
56042;BME280;48756;41.374;2.066;2023-02-13T12:28:20;102947.03;;;14.12;60.55
56042;BME280;48756;41.374;2.066;2023-02-13T12:47:15;102917.53;;;14.33;59.90
56042;BME280;48756;41.374;2.066;2023-02-13T13:11:27;102887.25;;;14.67;57.92
56042;BME280;48756;41.374;2.066;2023-02-13T13:16:56;102881.09;;;14.62;57.09
56042;BME280;48756;41.374;2.066;2023-02-13T13:23:12;102879.50;;;14.84;57.44
56042;BME280;48756;41.374;2.066;2023-02-13T13:28:16;102865.63;;;14.98;57.37
56042;BME280;48756;41.374;2.066;2023-02-13T13:30:44;102860.31;;;14.92;57.80
56042;BME280;48756;41.374;2.066;2023-02-13T13:33:17;102863.94;;;15.16;57.75
56042;BME280;48756;41.374;2.066;2023-02-13T13:35:59;102860.34;;;14.95;58.08
56042;BME280;48756;41.374;2.066;2023-02-13T13:38:59;102860.41;;;15.08;56.96
56042;BME280;48756;41.374;2.066;2023-02-13T13:44:02;102849.03;;;15.09;56.96
56042;BME280;48756;41.374;2.066;2023-02-13T13:49:50;102846.41;;;15.12;56.22
56042;BME280;48756;41.374;2.066;2023-02-13T13:52:25;102833.47;;;15.53;55.16
56042;BME280;48756;41.374;2.066;2023-02-13T13:54:52;102842.22;;;15.44;55.81
56042;BME280;48756;41.374;2.066;2023-02-13T14:04:59;102835.78;;;14.89;56.93
56042;BME280;48756;41.374;2.066;2023-02-13T14:07:33;102843.50;;;14.66;57.61
56042;BME280;48756;41.374;2.066;2023-02-13T14:09:59;102842.56;;;14.53;58.69
56042;BME280;48756;41.374;2.066;2023-02-13T14:14:51;102845.16;;;14.52;58.80
56042;BME280;48756;41.374;2.066;2023-02-13T14:22:48;102833.09;;;14.74;57.76
56042;BME280;48756;41.374;2.066;2023-02-13T14:25:39;102839.22;;;14.76;58.49
56042;BME280;48756;41.374;2.066;2023-02-13T14:28:34;102827.88;;;14.84;58.39
56042;BME280;48756;41.374;2.066;2023-02-13T14:31:13;102832.19;;;14.72;59.19
56042;BME280;48756;41.374;2.066;2023-02-13T14:33:42;102842.38;;;14.36;59.12
56042;BME280;48756;41.374;2.066;2023-02-13T14:36:19;102841.47;;;14.34;59.70
56042;BME280;48756;41.374;2.066;2023-02-13T14:38:58;102843.25;;;14.38;59.37
56042;BME280;48756;41.374;2.066;2023-02-13T14:44:25;102840.13;;;14.81;58.57
56042;BME280;48756;41.374;2.066;2023-02-13T14:46:55;102841.72;;;14.62;58.49
56042;BME280;48756;41.374;2.066;2023-02-13T14:52:05;102837.81;;;14.16;60.87
56042;BME280;48756;41.374;2.066;2023-02-13T14:54:38;102841.13;;;13.96;61.57
56042;BME280;48756;41.374;2.066;2023-02-13T14:57:19;102834.34;;;14.20;61.17
56042;BME280;48756;41.374;2.066;2023-02-13T14:59:49;102829.91;;;14.13;60.35
56042;BME280;48756;41.374;2.066;2023-02-13T15:02:24;102830.56;;;13.89;62.18
56042;BME280;48756;41.374;2.066;2023-02-13T15:05:14;102826.25;;;13.97;61.88
56042;BME280;48756;41.374;2.066;2023-02-13T15:07:46;102826.56;;;14.26;59.57
56042;BME280;48756;41.374;2.066;2023-02-13T15:13:01;102834.25;;;14.06;61.82
56042;BME280;48756;41.374;2.066;2023-02-13T15:15:34;102826.50;;;14.23;60.77
56042;BME280;48756;41.374;2.066;2023-02-13T15:18:09;102827.31;;;14.14;61.07
56042;BME280;48756;41.374;2.066;2023-02-13T15:20:38;102823.38;;;13.69;62.79
56042;BME280;48756;41.374;2.066;2023-02-13T15:23:06;102816.13;;;13.48;62.76
56042;BME280;48756;41.374;2.066;2023-02-13T15:25:36;102821.66;;;13.73;63.09
56042;BME280;48756;41.374;2.066;2023-02-13T15:28:04;102808.72;;;13.88;61.36
56042;BME280;48756;41.374;2.066;2023-02-13T15:30:33;102814.47;;;13.57;63.08
56042;BME280;48756;41.374;2.066;2023-02-13T15:33:15;102810.25;;;13.69;62.70
56042;BME280;48756;41.374;2.066;2023-02-13T15:35:42;102807.78;;;13.82;62.21
56042;BME280;48756;41.374;2.066;2023-02-13T15:38:25;102805.13;;;13.80;62.30
56042;BME280;48756;41.374;2.066;2023-02-13T15:40:52;102809.63;;;13.92;62.66
56042;BME280;48756;41.374;2.066;2023-02-13T15:43:24;102802.44;;;13.74;62.74
56042;BME280;48756;41.374;2.066;2023-02-13T15:45:52;102798.84;;;13.63;62.85
56042;BME280;48756;41.374;2.066;2023-02-13T15:48:17;102802.22;;;13.54;63.74
56042;BME280;48756;41.374;2.066;2023-02-13T15:50:43;102794.34;;;13.53;63.89
56042;BME280;48756;41.374;2.066;2023-02-13T15:53:14;102796.34;;;13.75;64.04
56042;BME280;48756;41.374;2.066;2023-02-13T15:55:40;102793.59;;;13.61;64.17
56042;BME280;48756;41.374;2.066;2023-02-13T15:58:11;102796.25;;;13.64;64.17
56042;BME280;48756;41.374;2.066;2023-02-13T16:00:40;102789.28;;;13.66;63.73